Stunt Ranch Reserve, Santa Monica Mtns, California Weather observations

Data are for 10 minute period ending at time listed.
 Day   Time   Solar   Ave.   Ave.  Ave.  Vector  Max.   Baro.   Total    
  of    of     Rad.   Air    Rel.  Wind   Wind   Wind  Press.  Precip.   
Year   Day            Temp.  Hum.  Speed  Dir.   Gust                    
2017   (PST)  Kw/m2    F      %     mph   deg.    mph    mb.     in.     
-------------------------------------------------------------------------
  22   14:10   0.05   49.8    92   15.0   105    36.5   965.1    0.06 
  22   14:20   0.06   49.6    92   14.9    99    29.1   965.1    0.06 
  22   14:30   0.03   49.6    93   12.8   101    24.9   965.1    0.05 
  22   14:40   0.04   49.9    93   12.7   117    28.4   965.1    0.08 
  22   14:50   0.05   50.4    92   10.7   120    21.6   965.1    0.05 
  22   15:00   0.05   50.7    92    9.0   126    17.5   964.8    0.05 
  22   15:10   0.06   50.8    92   10.6   118    19.4   964.8    0.08 
  22   15:20   0.03   50.8    92    9.7   128    16.5   964.8    0.08 
  22   15:30   0.04   50.8    93   10.2   133    16.7   965.1    0.08 
  22   15:40   0.03   51.3    93   12.9   141    19.4   964.8    0.04 
  22   15:50   0.04   51.6    92    9.8   142    16.4   965.5    0.07 
  22   16:00   0.04   51.7    93    9.0   149    16.1   965.5    0.02 
  22   16:10   0.08   51.6    92   12.3   138    18.6   965.1    0.01 
  22   16:20   0.08   52.2    92    8.8   125    18.9   964.8    0.00 
  22   16:30   0.04   52.7    93    6.2   138    12.9   964.8    0.00 
  22   16:40   0.04   52.8    94    7.0   132    12.3   965.1    0.00 
  22   16:50   0.05   53.0    94    7.8   129    13.8   964.8    0.00 
  22   17:00   0.03   53.3    94    5.3   164    11.0   964.8    0.00 
  22   17:10   0.02   52.7    94    2.8   243     5.0   965.1    0.00 
  22   17:20   0.01   52.3    94    1.6   309     5.0   965.1    0.00 
  22   17:30   0.00   52.1    95    2.1   140     4.3   964.8    0.00 
  22   17:40   0.00   51.9    95    2.5   264     7.6   964.8    0.00 
  22   17:50   0.00   51.6    96    0.9   281     3.1   965.1    0.00 
  22   18:00   0.00   51.7    96    1.4   313     4.2   965.5    0.00 
  22   18:10   0.00   51.1    96    1.0   205     2.9   965.5    0.00 
  22   18:20   0.00   51.1    96    1.0    70     4.3   965.5    0.00 
  22   18:30   0.00   51.1    96    1.4    14     3.8   965.8    0.00 
  22   18:40   0.00   51.1    96    1.7   278     5.0   965.8    0.00 
  22   18:50   0.00   50.8    96    1.4   116     3.1   965.8    0.00 
  22   19:00   0.00   51.2    96    4.5   181    14.1   965.5    0.00 
  22   19:10   0.00   51.7    94    4.8   200    22.9   965.8    0.00 
  22   19:20   0.00   51.9    92    6.8   223    21.8   965.8    0.00 
  22   19:30   0.00   51.9    91    4.6   247    12.5   966.1    0.00 
  22   19:40   0.00   51.7    91    4.0   263    12.6   965.8    0.00 
  22   19:50   0.00   51.3    91    3.2   241     8.9   965.8    0.00 
  22   20:00   0.00   51.2    90    6.2   237    18.2   965.8    0.01 
  22   20:10   0.00   51.0    89    3.9   235    16.3   965.8    0.00 
  22   20:20   0.00   50.8    89    5.0   236    14.1   965.8    0.00 
  22   20:30   0.00   50.9    89    3.2   184     9.7   965.8    0.00 
  22   20:40   0.00   50.8    89    4.9   225    12.9   965.8    0.00 
  22   20:50   0.00   51.1    89    7.2   205    19.5   965.5    0.01 
  22   21:00   0.00   51.2    90    6.9   232    17.2   965.5    0.02 
  22   21:10   0.00   51.3    91    6.3   226    15.3   965.5    0.02 
  22   21:20   0.00   51.3    91    6.9   210    18.9   965.5    0.00 
  22   21:30   0.00   51.3    92    7.7   210    19.6   965.5    0.02 
  22   21:40   0.00   51.4    90    9.8   215    22.5   965.5    0.01 
  22   21:50   0.00   51.4    90    8.6   220    22.9   965.1    0.02 
  22   22:00   0.00   51.5    90    8.5   226    22.6   965.1    0.00 
  22   22:10   0.00   51.5    91    9.8   226    26.5   965.1    0.02 
  22   22:20   0.00   51.5    88    9.9   220    28.0   965.5    0.04 
  22   22:30   0.00   51.0    90    7.5   246    19.9   965.5    0.15 
  22   22:40   0.00   50.7    90    4.9   244    11.3   965.5    0.02 
  22   22:50   0.00   49.9    89    4.3   242    16.2   965.5    0.00 
  22   23:00   0.00   49.3    90    5.4   245    21.5   965.5    0.00 
  22   23:10   0.00   49.3    90    3.0   252     8.9   965.5    0.00 
  22   23:20   0.00   49.3    92    3.6   254    16.9   965.5    0.00 
  22   23:30   0.00   49.3    92    2.8   243    12.6   965.5    0.00 
  22   23:40   0.00   49.3    92    4.2   254    14.3   965.5    0.00 
  22   23:50   0.00   49.3    92    4.7   246    14.7   965.5    0.00 
  23    0:00   0.00   49.3    90    5.1   250    15.3   965.5    0.00 
  23    0:10   0.00   49.2    90    3.8   257    15.1   965.5    0.00 
  23    0:20   0.00   48.9    90    2.9   246     8.0   965.5    0.00 
  23    0:30   0.00   48.8    89    3.7   251    12.3   965.5    0.00 
  23    0:40   0.00   48.5    88    4.4   267     9.0   965.1    0.00 
  23    0:50   0.00   48.2    88    6.8   270    20.7   965.1    0.00 
  23    1:00   0.00   48.0    86    4.7   249    11.8   964.8    0.00 
  23    1:10   0.00   47.7    86    3.8   238     9.6   965.1    0.00 
  23    1:20   0.00   47.8    86    3.4   253    11.6   965.1    0.00 
  23    1:30   0.00   47.9    86    3.2   250     8.6   964.8    0.00 
  23    1:40   0.00   48.0    87    3.5   256    14.5   964.8    0.00 
  23    1:50   0.00   47.8    88    2.8   246    10.3   964.8    0.00 
  23    2:00   0.00   47.6    86    4.5   247    14.0   965.1    0.01 
  23    2:10   0.00   47.3    84    4.2   243     9.5   965.1    0.00 
  23    2:20   0.00   47.1    85    4.0   252    10.0   965.1    0.00 
  23    2:30   0.00   46.9    88    3.4   259    10.5   964.8    0.02 
  23    2:40   0.00   46.6    90    2.9   224     5.4   964.8    0.01 
  23    2:50   0.00   46.6    90    3.3   239    10.8   964.8    0.01 
  23    3:00   0.00   46.5    90    1.6   212     4.9   964.8    0.01 
  23    3:10   0.00   46.5    89    3.8   220    10.9   964.8    0.01 
  23    3:20   0.00   46.5    89    0.9   140     3.5   964.8    0.00 
  23    3:30   0.00   46.6    89    5.8   269    18.3   964.8    0.00 
  23    3:40   0.00   46.8    88    0.9   209     6.1   964.4    0.00 
  23    3:50   0.00   46.5    88    3.1   248     8.1   964.4    0.00 
  23    4:00   0.00   46.4    89    1.7   231     5.2   964.4    0.00 
  23    4:10   0.00   46.5    88    3.2   256    12.1   964.4    0.00 
  23    4:20   0.00   46.5    86    3.6   239    11.5   964.1    0.00 
  23    4:30   0.00   46.0    87    3.0   244    13.2   964.1    0.00 
  23    4:40   0.00   45.9    88    5.9   264    15.8   964.1    0.00 
  23    4:50   0.00   46.0    87    4.4   248    14.8   964.1    0.00 
  23    5:00   0.00   46.0    87    2.9   268    11.6   963.8    0.00 
  23    5:10   0.00   46.1    85    2.5   235     8.0   963.8    0.00 
  23    5:20   0.00   46.4    83    3.2   261    13.6   963.8    0.01 
  23    5:30   0.00   46.0    86    2.8   230     9.1   964.1    0.00 
  23    5:40   0.00   46.1    88    3.5   280    11.0   964.1    0.00 
  23    5:50   0.00   46.1    89    2.4   253     7.5   964.1    0.00 
  23    6:00   0.00   46.0    88    3.5   248    11.8   964.1    0.00 
  23    6:10   0.00   46.2    86    1.6   234     8.2   964.1    0.01 
  23    6:20   0.00   46.2    86    2.6   255     9.1   964.1    0.00 
  23    6:30   0.00   45.7    87    2.6   244     7.8   964.4    0.00 
  23    6:40   0.00   45.6    85    2.9   252     9.1   964.4    0.00 
  23    6:50   0.00   46.0    83    3.7   268    12.0   964.4    0.00 
  23    7:00   0.00   45.7    85    1.0   243     5.4   964.4    0.00 
  23    7:10   0.01   45.3    85    3.3   194     8.8   964.4    0.00 
  23    7:20   0.01   45.7    84    1.9   209     5.0   964.4    0.00 
  23    7:30   0.04   45.5    85    1.7   235     5.8   964.4    0.00 
  23    7:40   0.04   45.6    86    1.3   195     3.9   964.4    0.00 
  23    7:50   0.04   45.9    85    1.8   336     4.7   964.4    0.00 
  23    8:00   0.02   45.7    85    2.9   300    10.4   964.4    0.03 
  23    8:10   0.06   44.0    88    5.5   266    15.6   964.4    0.02 
  23    8:20   0.10   44.1    90    2.1   219     6.1   964.4    0.00 
  23    8:30   0.09   45.2    89    1.1   110     4.2   964.4    0.00 
  23    8:40   0.09   46.0    88    2.2   294     9.1   964.4    0.00 
  23    8:50   0.27   46.6    82    3.7   242    13.3   964.8    0.00 
  23    9:00   0.14   48.0    79    5.2   274    12.8   965.1    0.00 
  23    9:10   0.08   47.0    83    1.6   207     4.3   965.1    0.00 
  23    9:20   0.07   46.5    85    1.9   234     4.7   965.1    0.00 
  23    9:30   0.10   46.7    85    1.7   237     6.5   965.1    0.00 
  23    9:40   0.11   47.5    84    1.3   245     5.6   965.5    0.00 
  23    9:50   0.18   47.8    82    3.2   282    14.5   965.5    0.00 
  23   10:00   0.20   48.8    78    1.4   237     5.0   965.5    0.00 
  23   10:10   0.09   48.5    79    2.3   247     8.3   965.5    0.00 
  23   10:20   0.23   48.3    84    2.9   307     9.3   965.5    0.00 
  23   10:30   0.17   49.0    83    2.1   290     5.4   965.5    0.00 
  23   10:40   0.08   48.9    84    2.3   308     8.8   965.8    0.00 
  23   10:50   0.12   47.3    84    4.5   313    14.6   965.8    0.00 
  23   11:00   0.21   46.6    83    2.3   308     8.5   965.5    0.00 
  23   11:10   0.08   46.9    82    1.8   300     6.1   965.5    0.00 
  23   11:20   0.06   45.5    87    2.4   292     9.3   965.5    0.02 
  23   11:30   0.16   45.2    90    1.9   289     5.6   965.1    0.00 
  23   11:40   0.16   45.7    91    2.1   280     6.0   964.8    0.00 
  23   11:50   0.18   46.5    90    2.8   278     7.7   964.8    0.00 
  23   12:00   0.32   47.1    87    3.8   275     9.8   964.8    0.00 
  23   12:10   0.27   48.2    82    4.3   275    11.4   964.4    0.00 
  23   12:20   0.19   48.2    80    3.2   282     7.8   964.4    0.00 
  23   12:30   0.46   49.2    80    2.5   285     8.1   964.4    0.00 
  23   12:40   0.13   50.3    72    2.7   279     7.7   964.1    0.00 
  23   12:50   0.08   48.5    76    2.7   292    11.7   964.1    0.00 
  23   13:00   0.09   47.4    79    2.2   283     9.6   964.1    0.00 
  23   13:10   0.16   47.4    81    1.9   291     7.2   964.1    0.00 
  23   13:20   0.21   48.1    78    3.1   281     8.3   963.8    0.00 
  23   13:30   0.59   50.3    71    5.0   275    11.5   963.8    0.00 
  23   13:40   0.53   52.8    62    3.6   288     8.2   963.4    0.00 
  23   13:50   0.51   53.4    59    3.9   271     8.9   963.4    0.00 
  23   14:00   0.50   52.7    59    5.5   264    11.5   963.4    0.00 

Return to Stunt Ranch Reserve graphs page.


Western Regional Climate Center,wrcc@dri.edu